Ergebnisliste vom: 02.11.2013 - Kleiner Sachsenlauf2013 - 11,6 km

weitere Ergebnisse >>

Platz Pl.m Pl.w Stnr. Name,Vorname Verein GJ AK Akm AKw Endzeit RŘckstand
1 1   119 Wernitz, J├╝rgen LRC Mittelsachsen Oschatz 73 M40 1   0:41:36 0:00:00
2 2   3 Lindig, Thomas SV Elbland Coswig Mei├čen 70 M40 2   0:42:06 0:00:30
3 3   37 Richter, Christoph SC Riesa 93 M20 1   0:42:26 0:00:50
4 4   21 Werner, Maik SG Adelsberg 86 M20 2   0:42:37 0:01:01
5 5   54 Flachowsky, Stefan OSSV Kamenz 70 M40 3   0:43:16 0:01:40
6 6   34 Wei├č, Ludwig Gr├╝n-Wei├č Ebersbach 91 M20 3   0:44:00 0:02:24
7 7   124 Held, Jonas SC Riesa - Triathlon 97 mU20 1   0:44:23 0:02:47
8 8   99 Berndt, Thomas SSV Planeta Radebeul 68 M45 1   0:44:25 0:02:49
9 9   22 Wolf, Daniel LG Priestewitz 74 M35 1   0:45:09 0:03:33
10 10   117 Hein, Hagen Coswig 74 M35 2   0:45:54 0:04:18
11 11   98 Sittner, Falk Lauff├Ârdergruppe Gruna 81 M30 1   0:46:07 0:04:31
12 12   60 Weidner, Pascal Ungarn Amateure Wermsdorf 97 mU20 2   0:46:20 0:04:44
13 13   55 Thomschke, Patrick OSSV Kamenz 76 M35 3   0:46:26 0:04:50
14 14   9 Ulrich, Kai-Uwe Dresden 66 M45 2   0:46:37 0:05:01
15 15   31 Boden-Peroche, Martin Dresden 68 M45 3   0:46:39 0:05:03
16 16   25 Winkler, Martin LG Jessen 85 M20 4   0:46:49 0:05:13
17 17   10 Richter, Johannes SV TuR Dresden 86 M20 5   0:47:19 0:05:43
18 18   58 Weidner, Dominik Ungarn Amateure Wermsdorf 97 mU20 3   0:47:21 0:05:45
19 19   61 Kunfalvi, Jen├ Ungarn Amateure Wermsdorf 79 M30 2   0:47:35 0:05:59
20 20   49 Pohl, Roland   66 M45 4   0:47:45 0:06:09
21 21   20 Sch├╝tzka, Georg LG TUS Weinb├Âhla 86 M20 6   0:48:29 0:06:53
22 22   63 Peterek, Lars 1. RV Pirna 78 M35 4   0:48:34 0:06:58
23 23   89 Dreger, Jens Waldl├Ąufer Coswig 65 M45 5   0:48:38 0:07:02
24 24   24 Naumann, Volker SV Vorw├Ąrts Zwickau 58 M55 1   0:48:44 0:07:08
25 25   120 Mutzke, Thomas Wei├čig a. Rasch├╝tz 75 M35 5   0:48:48 0:07:12
26 26   8 M├╝ller, Timo Free Willy 77 M35 6   0:48:52 0:07:16
27 27   38 Schilling, Marvin SC Riesa 97 mU20 4   0:49:08 0:07:32
28 28   12 Schliwa, Erik Team Tempus 87 M20 7   0:49:09 0:07:33
29 29   13 P├Ąpscheck, Silvio   82 M30 3   0:49:13 0:07:37
30 30   91 Schietzel, Heiko LG Priestewitz 65 M45 6   0:49:21 0:07:45
31 31   18 Kn├Âfel, Detlef Mei├čen 63 M50 1   0:49:44 0:08:08
32 32   71 Freier, Jens Dresden 67 M45 7   0:49:56 0:08:20
33 33   15 Matz, J├╝rgen TSV Dresden 58 M55 2   0:50:23 0:08:47
34 34   6 Berger, Victor TuS Coswig 53 M60+ 1   0:50:32 0:08:56
35 35   57 Dewitz, Heiko ESV Lok D├Âbeln 64 M45 8   0:50:47 0:09:11
36 36   36 K├╝hn, Ronald TC Wilde Gesellen 57 66 M45 9   0:51:05 0:09:29
37 37   62 Pospisil, Joachim Nossen 58 M55 3   0:51:15 0:09:39
38 38   42 Rox, Andreas Ebersbach 59 M50 2   0:51:33 0:09:57
39 39   85 Kuge, Jens Mei├čen 70 M40 4   0:51:42 0:10:06
40   1 1 Lindig, Katrin SV Elbland Coswig Mei├čen 74 W35   1 0:51:47 0:10:11
41 40   19 B├Âhme, Kai LG Priestewitz 70 M40 5   0:51:57 0:10:21
42 41   79 Rothe, Frank Dresden 70 M40 6   0:52:20 0:10:44
43 42   30 Zwicke, Hans-J├╝rgen SC Riesa 50 M60+ 2   0:52:21 0:10:45
44 43   108 Schwan, Gunnar SV Elbland Coswig Mei├čen 65 M45 10   0:52:27 0:10:51
45 44   66 M├Ąs, Stephan TU Dresden 77 M35 7   0:52:31 0:10:55
46 45   68 Forger, Marcel LG Dresden Torwirtschaft 80 M30 4   0:53:15 0:11:39
47 46   132 Schenk, Steffen Skiklub Dresden Niedersedlitz 62 M50 3   0:53:21 0:11:45
48 47   127 Fischer, Gerd HSV Weinb├Âhla 67 M45 11   0:53:24 0:11:48
49 48   130 Martin, O Toole   80 M30 5   0:53:25 0:11:49
50 49   134 Scholze, Milan Dresden 62 M50 4   0:53:26 0:11:50
51 50   69 Feder, Hartmut Mei├čen 60 M50 5   0:53:34 0:11:58
52 51   14 Ruhland, J├Ârg Team Sport Ruscher 68 M45 12   0:53:40 0:12:04
53   2 107 M├╝nch, Kristin SV Elbland Coswig Mei├čen 84 W20   1 0:53:45 0:12:09
54 52   27 B├Ąnsch, Gerd Lommatzsch 73 M40 7   0:53:46 0:12:10
55 53   113 Rasch, G├╝nter   61 M50 6   0:53:50 0:12:14
56   3 56 Dewitz, Silke ESV Lok D├Âbeln 67 W45   1 0:53:52 0:12:16
57 54   11 Heyer, Ulrich Chemnitz 53 M60+ 3   0:54:02 0:12:26
58 55   53 Karger, Sylvio Coswig 63 M50 7   0:54:12 0:12:36
59 56   93 Schietzel, Stefan LG Priestewitz 90 M20 8   0:54:19 0:12:43
60 57   41 Stark, Bertold IPC - Radebeul 61 M50 8   0:54:25 0:12:49
61 58   51 Herrmann, Roland TV Dresden 63 M50 9   0:54:32 0:12:56
62 59   23 Kretzschmar, J├Ârn SSV Ulm 1846 80 M30 6   0:54:37 0:13:01
63 60   50 Schwarzer, Harald Katzengebirgsl├Ąufer 61 M50 10   0:54:40 0:13:04
64 61   94 Schulz, Stefan Wacker N├╝nchritz 85 M20 9   0:54:44 0:13:08
65   4 28 ├ľhmichen, Eva Team Storm Biker 90 W20   2 0:54:45 0:13:09
66 62   5 Zemke, Manfred SV Niederau 46 M60+ 4   0:55:20 0:13:44
67 63   64 Popp, Volkmar Coswig 63 M50 11   0:55:38 0:14:02
68 64   110 Winkelmann, Uwe Pratzschwitz 57 M55 4   0:55:48 0:14:12
69 65   126 B├╝rger, Andreas Dresden 80 M30 7   0:56:07 0:14:31
70 66   32 Eichhorn, Andreas Skiclub Radebeul 63 M50 12   0:56:08 0:14:32
71 67   125 Tille, Peter Gro├čenhain 58 M55 5   0:56:21 0:14:45
72 68   39 Lungwitz, Oliver   87 M20 10   0:56:23 0:14:47
73 69   48 Bittner, Andreas CVJM Coswig 71 M40 8   0:56:43 0:15:07
74 70   131 L├╝hn, Ole   79 M30 8   0:56:45 0:15:09
75   5 74 Tsch├Âpe, Franziska   65 W45   2 0:56:46 0:15:10
76 71   2 K├Ârbs, Dirk Laufgruppe Nossen 65 M45 13   0:56:49 0:15:13
76 71   70 G├╝nzel, Jan   82 M30 9   0:56:49 0:15:13
78   6 7 Zabell, Nadja Luppa 67 W45   3 0:57:13 0:15:37
79   7 33 Primus, Heike SC Riesa 62 W50+   1 0:57:25 0:15:49
80   8 35 Hering, Kerstin TSV Dresden 65 W45   4 0:57:40 0:16:04
81 73   100 Grethe, Jens SSV Planeta Radebeul 71 M40 9   0:57:47 0:16:11
82 74   102 Berndt, Lars KBA 73 M40 10   0:57:53 0:16:17
83   9 78 Rothe, Diana Moritzburger TV 73 W40   1 0:58:16 0:16:40
84 75   43 Wohs, Olaf Coswiger Kanuverein 68 M45 14   0:58:33 0:16:57
85 76   105 Wei├č, Rico Saunatruppe Mei├čen 68 M45 15   0:58:38 0:17:02
86 77   109 Gruschwitz, Thomas R├Âderau 81 M30 10   0:58:55 0:17:19
87 78   97 Joestel, Klaus Niederau 62 M50 13   0:59:02 0:17:26
88 79   65 Popp, Markus FHTC Freiberg 90 M20 11   0:59:04 0:17:28
89 80   115 Moormann, Markus   85 M20 12   0:59:27 0:17:51
90   10 52 Herrmann, Antje TV Dresden 63 W50+   2 0:59:50 0:18:14
91 81   133 Bransch, Ulli Nossen 84 M20 13   0:59:54 0:18:18
92   11 81 Metz, Susanne Berlin 68 W45   5 0:59:58 0:18:22
93 82   76 Falkenthal, Frank   73 M40 11   1:00:16 0:18:40
94 83   84 Krille, Steffen SV Wildenhain 63 M50 14   1:00:20 0:18:44
95 84   118 Bradler, Udo DAV Sektion Leipzig 70 M40 12   1:00:39 0:19:03
96 85   47 Ulbricht, Hans-J├╝rgen SV Merzdorf Gr├Âden 57 M55 6   1:00:58 0:19:22
97 86   16 Ebisch, Christoph DSC Abt. Tricking 90 M20 14   1:01:46 0:20:10
98   12 67 Richter, Silke USV TU Dresden Orientierungslauf 80 W30   1 1:02:15 0:20:39
99 87   121 Eisemuth, Sandro SV Lampertswalde 81 M30 11   1:02:20 0:20:44
100 88   26 List, Hans-Joachim Ruhland 49 M60+ 5   1:02:39 0:21:03
101   13 75 Stauch, Katrin Coswig 68 W45   6 1:02:47 0:21:11
102 89   4 M├╝ller, Uwe Leisnig 70 M40 13   1:02:50 0:21:14
103   14 114 Gei├čmar, Sandra Dresden 88 W20   3 1:02:52 0:21:16
104 90   103 Hauk, Bernd Saunatruppe Mei├čen 62 M50 15   1:03:02 0:21:26
105   15 73 Weps, Katja   76 W35   2 1:03:29 0:21:53
106   16 111 Mi├čbach, Marita Mei├čen 60 W50+   3 1:03:51 0:22:15
107   17 72 Scholz, Evelyn   71 W40   2 1:04:02 0:22:26
108 91   129 W├Ąhrer, Christoph Mei├čen 65 M45 16   1:04:10 0:22:34
109   18 86 Wegner-Drichelt, Cornelia   74 W35   3 1:04:18 0:22:42
110 92   87 R├Âsch, Carsten   69 M40 14   1:04:19 0:22:43
111   19 92 Hilse, Yvette Peritz 67 W45   7 1:04:20 0:22:44
112   20 17 Wehner, Cornelia Laufszene Sachsen 70 W40   3 1:05:21 0:23:45
113 93   82 Schurig, Kai Regensburg 65 M45 17   1:05:28 0:23:52
114 94   77 Zeiske, Matthias Gro├čenhain 66 M45 18   1:05:48 0:24:12
115   21 45 Muth, Stefanie Laufteam Goethestra├če 82 W30   2 1:05:49 0:24:13
116 95   44 Wagner, Birk Laufteam Goethestra├če 78 M35 8   1:05:57 0:24:21
117 96   46 Meich├čner, Ronald Laufteam Goethestra├če 75 M35 9   1:05:59 0:24:23
118   22 80 Bergmann, Janette Team Pinki & Brain 82 W30   3 1:07:01 0:25:25
119 97   112 Riesling, Lukas Holzwurm Altfranken 63 M50 16   1:07:08 0:25:32
120 98   59 Damme, Eckhard LG Weinb├Âhla 49 M60+ 6   1:07:19 0:25:43
121 99   104 Heinel, Uwe Saunatruppe Mei├čen 55 M55 7   1:07:21 0:25:45
122 100   96 G├Âdke, J├╝rgen Fitne├čclub Gro├čenhain 53 M60+ 7   1:07:42 0:26:06
123   23 90 Schietzel, Gabriela LG Priestewitz 67 W45   8 1:07:52 0:26:16
124   24 83 Krille, Sabine SV Wildenhain 62 W50+   4 1:08:42 0:27:06
125 101   88 Bielitz, Eckehard Coswig 72 M40 15   1:08:45 0:27:09
126 102   128 Ruff, Oliver   78 M35 10   1:09:47 0:28:11
127   25 40 Rogge, Kathleen H├╝bler Street Gang 24 81 W30   4 1:10:27 0:28:51
128 103   122 Meier, Friedhard Niederau 53 M60+ 8   1:12:08 0:30:32
129   26 116 Olmer, Magdalena   89 W20   4 1:12:45 0:31:09
130   27 29 ├ľhmichen, Bettina   55 W50+   5 1:15:20 0:33:44
131   28 101 Heinel, Ines Saunatruppe Mei├čen 59 W50+   6 1:15:30 0:33:54
132   29 106 Wei├č, Rita Saunatruppe Mei├čen 69 W40   4 1:20:39 0:39:03
133 104   95 Schmidt, Ralf   93 M20 15   1:25:41 0:44:05
(c) 1990-2020 Blue Wonder Sport Promotion - Andreas Burow - Zeitnahme & Auswertung - www.Triathlon-Service.de